最新 今天 统计 地图 地球 设置 关于

今天收到的 9A3XK 300 APRS数据包 下载轨迹 aprs.fi hamclub hellocq 本站 本站轨迹

时间msgraw packet
2020-07-13 10:31:069A3XK>APMI06,TCPIP*,qAC,APRSFI-I1:T#182,077,050,019,16440,083,00000000
2020-07-13 10:30:369A3XK>BEACON,HG8PKA-2,qAR,HG5PBD-2:Power 9W Gain 3dB Height 240m Ant omni
2020-07-13 10:26:069A3XK>APMI06,TCPIP*,qAC,APRSFI-I1:T#181,078,049,018,16435,083,00000000
2020-07-13 10:25:13!4522.10N/01814.60EIiGate&W2 DJAKOVO CRLNet.108 http://elco.hr9A3XK>APMI06,YU0XFG-1*,qAR,YO2KCB-1:!4522.10N/01814.60EIiGate&W2 DJAKOVO CRLNet.108 http://elco.hr
2020-07-13 10:21:069A3XK>APMI06,TCPIP*,qAC,APRSFI-I1:T#180,087,050,022,16426,083,00000000
2020-07-13 10:20:339A3XK>BEACON,E79VTR-11,WIDE1*,qAR,9A5CAN-11:Power 9W Gain 3dB Height 240m Ant omni
2020-07-13 10:16:069A3XK>APMI06,TCPIP*,qAC,APRSFI-I1:T#179,100,049,022,16420,083,00000000
2020-07-13 10:11:069A3XK>APMI06,TCPIP*,qAC,APRSFI-I1:T#178,071,048,011,16410,083,00000000
2020-07-13 10:10:309A3XK>BEACON,TCPIP*,qAC,APRSFI-I1:Power 9W Gain 3dB Height 240m Ant omni
2020-07-13 10:10:239A3XK>BEACON,9A1BTU-1*,WIDE1,qAR,9A5CAN-11:CRLNet.108 - SysOp 9a3XK & 9a7kxp-Internet via DJWIRELES http://djw.hr/
2020-07-13 10:10:159A3XK>APMI06,TCPIP*,qAC,APRSFI-I1:>http://crlnet.it - WX3IN1 Plus 2.0 - v1.13 - 24.6C - 12.1V
2020-07-13 10:10:11!4522.10N/01814.60EIiGate&W2 DJAKOVO CRLNet.108 http://elco.hr9A3XK>APMI06,TCPIP*,qAC,APRSFI-I1:!4522.10N/01814.60EIiGate&W2 DJAKOVO CRLNet.108 http://elco.hr
2020-07-13 10:08:079A3XK>APMI06,9A1BTU-1*,WIDE1,qAR,9A5CAN-11:T#177,053,048,006,16408,083,00000000
2020-07-13 10:06:069A3XK>APMI06,TCPIP*,qAC,APRSFI-I1:T#176,049,049,006,16408,083,00000000
2020-07-13 10:01:069A3XK>APMI06,TCPIP*,qAC,APRSFI-I1:T#175,047,049,006,16415,083,00000000
2020-07-13 10:00:349A3XK>BEACON,9A1BTU-1*,WIDE1,qAR,9A5CAN-11:Power 9W Gain 3dB Height 240m Ant omni
2020-07-13 10:00:13!4522.10N/01814.60EIiGate&W2 DJAKOVO CRLNet.108 http://elco.hr9A3XK>APMI06,E79VTR-11*,WIDE2-1,qAR,9A5CAN-11:!4522.10N/01814.60EIiGate&W2 DJAKOVO CRLNet.108 http://elco.hr
2020-07-13 09:56:069A3XK>APMI06,TCPIP*,qAC,APRSFI-I1:T#174,085,052,022,16416,083,00000000
2020-07-13 09:51:069A3XK>APMI06,TCPIP*,qAC,APRSFI-I1:T#173,091,052,024,16414,083,00000000
2020-07-13 09:50:339A3XK>BEACON,E79VTR-11,WIDE1*,qAR,9A5CAN-11:Power 9W Gain 3dB Height 240m Ant omni
2020-07-13 09:46:069A3XK>APMI06,TCPIP*,qAC,APRSFI-I1:T#172,083,050,017,16395,083,00000000
2020-07-13 09:41:069A3XK>APMI06,TCPIP*,qAC,APRSFI-I1:T#171,077,049,016,16393,083,00000000
2020-07-13 09:40:319A3XK>BEACON,TCPIP*,qAC,APRSFI-I1:Power 9W Gain 3dB Height 240m Ant omni
2020-07-13 09:40:249A3XK>BEACON,9A1BTU-1*,WIDE1,qAR,9A5CAN-11:CRLNet.108 - SysOp 9a3XK & 9a7kxp-Internet via DJWIRELES http://djw.hr/
2020-07-13 09:40:169A3XK>APMI06,TCPIP*,qAC,APRSFI-I1:>http://crlnet.it - WX3IN1 Plus 2.0 - v1.13 - 25.0C - 12.1V
2020-07-13 09:40:11!4522.10N/01814.60EIiGate&W2 DJAKOVO CRLNet.108 http://elco.hr9A3XK>APMI06,TCPIP*,qAC,APRSFI-I1:!4522.10N/01814.60EIiGate&W2 DJAKOVO CRLNet.108 http://elco.hr
2020-07-13 09:39:079A3XK>APMI06,E79VTR-11,WIDE1*,qAR,9A5CAN-11:T#170,073,048,013,16393,083,00000000
2020-07-13 09:36:069A3XK>APMI06,TCPIP*,qAC,APRSFI-I1:T#169,068,048,010,16380,083,00000000
2020-07-13 09:35:13!4522.10N/01814.60EIiGate&W2 DJAKOVO CRLNet.108 http://elco.hr9A3XK>APMI06,E79VTR-11*,WIDE2-1,qAR,9A5CAN-11:!4522.10N/01814.60EIiGate&W2 DJAKOVO CRLNet.108 http://elco.hr
2020-07-13 09:31:069A3XK>APMI06,TCPIP*,qAC,APRSFI-I1:T#168,078,047,014,16387,083,00000000
2020-07-13 09:30:339A3XK>BEACON,9A1BTU-1*,WIDE1,qAR,9A5CAN-11:Power 9W Gain 3dB Height 240m Ant omni
2020-07-13 09:26:069A3XK>APMI06,TCPIP*,qAC,APRSFI-I1:T#167,076,047,015,16385,083,00000000
2020-07-13 09:21:069A3XK>APMI06,TCPIP*,qAC,APRSFI-I1:T#166,072,046,010,16383,083,00000000
2020-07-13 09:20:339A3XK>BEACON,9A1BTU-1*,WIDE1,qAR,9A5CAN-11:Power 9W Gain 3dB Height 240m Ant omni
2020-07-13 09:16:069A3XK>APMI06,TCPIP*,qAC,APRSFI-I1:T#165,095,047,010,16381,083,00000000
2020-07-13 09:11:069A3XK>APMI06,TCPIP*,qAC,APRSFI-I1:T#164,084,045,013,16392,083,00000000
2020-07-13 09:10:319A3XK>BEACON,TCPIP*,qAC,APRSFI-I1:Power 9W Gain 3dB Height 240m Ant omni
2020-07-13 09:10:249A3XK>BEACON,YU0XFG-1,WIDE1*,qAR,YO2KCB-1:CRLNet.108 - SysOp 9a3XK & 9a7kxp-Internet via DJWIRELES http://djw.hr/
2020-07-13 09:10:169A3XK>APMI06,TCPIP*,qAC,APRSFI-I1:>http://crlnet.it - WX3IN1 Plus 2.0 - v1.13 - 25.3C - 12.1V
2020-07-13 09:10:11!4522.10N/01814.60EIiGate&W2 DJAKOVO CRLNet.108 http://elco.hr9A3XK>APMI06,TCPIP*,qAC,APRSFI-I1:!4522.10N/01814.60EIiGate&W2 DJAKOVO CRLNet.108 http://elco.hr
2020-07-13 09:10:079A3XK>APMI06,E79VTR-11,WIDE1*,qAR,OE6XG-2:T#163,081,045,013,16398,083,00000000
2020-07-13 09:06:069A3XK>APMI06,TCPIP*,qAC,APRSFI-I1:T#162,079,045,015,16396,083,00000000
2020-07-13 09:01:069A3XK>APMI06,TCPIP*,qAC,APRSFI-I1:T#161,074,044,014,16399,083,00000000
2020-07-13 09:00:339A3XK>BEACON,YU0XFG-1,WIDE1*,qAR,YO2KCB-1:Power 9W Gain 3dB Height 240m Ant omni
2020-07-13 08:56:069A3XK>APMI06,TCPIP*,qAC,APRSFI-I1:T#160,064,042,007,16393,083,00000000
2020-07-13 08:51:069A3XK>APMI06,TCPIP*,qAC,APRSFI-I1:T#159,060,042,006,16396,083,00000000
2020-07-13 08:50:339A3XK>BEACON,YU0XFG-1,WIDE1*,qAR,YO2KCB-1:Power 9W Gain 3dB Height 240m Ant omni
2020-07-13 08:46:069A3XK>APMI06,TCPIP*,qAC,APRSFI-I1:T#158,067,042,009,16401,083,00000000
2020-07-13 08:45:13!4522.10N/01814.60EIiGate&W2 DJAKOVO CRLNet.108 http://elco.hr9A3XK>APMI06,E79VTR-11*,WIDE2-1,qAR,9A5CAN-11:!4522.10N/01814.60EIiGate&W2 DJAKOVO CRLNet.108 http://elco.hr
2020-07-13 08:41:089A3XK>APMI06,YU0XFG-1,WIDE1*,qAR,YO2KCB-1:T#156,065,042,012,16410,083,00000000
2020-07-13 08:41:069A3XK>APMI06,TCPIP*,qAC,APRSFI-I1:T#157,065,042,012,16410,083,00000000
2020-07-13 08:40:319A3XK>BEACON,TCPIP*,qAC,APRSFI-I1:Power 9W Gain 3dB Height 240m Ant omni
2020-07-13 08:40:239A3XK>BEACON,9A1BTU-1*,WIDE1,qAR,9A5CAN-11:CRLNet.108 - SysOp 9a3XK & 9a7kxp-Internet via DJWIRELES http://djw.hr/
2020-07-13 08:40:169A3XK>APMI06,TCPIP*,qAC,APRSFI-I1:>http://crlnet.it - WX3IN1 Plus 2.0 - v1.13 - 25.6C - 12.1V
2020-07-13 08:40:11!4522.10N/01814.60EIiGate&W2 DJAKOVO CRLNet.108 http://elco.hr9A3XK>APMI06,TCPIP*,qAC,APRSFI-I1:!4522.10N/01814.60EIiGate&W2 DJAKOVO CRLNet.108 http://elco.hr
2020-07-13 08:36:069A3XK>APMI06,TCPIP*,qAC,APRSFI-I1:T#155,070,043,010,16408,083,00000000
2020-07-13 08:31:069A3XK>APMI06,TCPIP*,qAC,APRSFI-I1:T#154,059,042,008,16410,083,00000000
2020-07-13 08:30:339A3XK>BEACON,YU0XFG-1,WIDE1*,qAR,YO2KCB-1:Power 9W Gain 3dB Height 240m Ant omni
2020-07-13 08:26:069A3XK>APMI06,TCPIP*,qAC,APRSFI-I1:T#153,065,041,016,16415,083,00000000
2020-07-13 08:21:069A3XK>APMI06,TCPIP*,qAC,APRSFI-I1:T#152,071,041,014,16413,083,00000000
2020-07-13 08:20:339A3XK>BEACON,E79VTR-11,WIDE1*,qAR,OE6XG-2:Power 9W Gain 3dB Height 240m Ant omni
2020-07-13 08:20:14!4522.10N/01814.60EIiGate&W2 DJAKOVO CRLNet.108 http://elco.hr9A3XK>APMI06,9A1BTU-1*,qAR,9A5CAN-11:!4522.10N/01814.60EIiGate&W2 DJAKOVO CRLNet.108 http://elco.hr
2020-07-13 08:16:069A3XK>APMI06,TCPIP*,qAC,APRSFI-I1:T#151,073,039,009,16398,083,00000000
2020-07-13 08:11:069A3XK>APMI06,TCPIP*,qAC,APRSFI-I1:T#149,064,039,014,16406,083,00000000
2020-07-13 08:10:319A3XK>BEACON,TCPIP*,qAC,APRSFI-I1:Power 9W Gain 3dB Height 240m Ant omni
2020-07-13 08:10:289A3XK>BEACON,E79VTR-11,WIDE1*,qAR,9A5CAN-11:CRLNet.108 - SysOp 9a3XK & 9a7kxp-Internet via DJWIRELES http://djw.hr/
2020-07-13 08:10:169A3XK>APMI06,TCPIP*,qAC,APRSFI-I1:>http://crlnet.it - WX3IN1 Plus 2.0 - v1.13 - 25.9C - 12.1V
2020-07-13 08:10:11!4522.10N/01814.60EIiGate&W2 DJAKOVO CRLNet.108 http://elco.hr9A3XK>APMI06,TCPIP*,qAC,APRSFI-I1:!4522.10N/01814.60EIiGate&W2 DJAKOVO CRLNet.108 http://elco.hr
2020-07-13 08:06:069A3XK>APMI06,TCPIP*,qAC,APRSFI-I1:T#148,053,039,008,16407,083,00000000
2020-07-13 08:01:069A3XK>APMI06,TCPIP*,qAC,APRSFI-I1:T#147,060,039,008,16401,083,00000000
2020-07-13 08:00:339A3XK>BEACON,9A1BTU-1*,WIDE1,qAR,9A5CAN-11:Power 9W Gain 3dB Height 240m Ant omni
2020-07-13 07:56:069A3XK>APMI06,TCPIP*,qAC,APRSFI-I1:T#146,060,039,008,16405,083,00000000
2020-07-13 07:55:13!4522.10N/01814.60EIiGate&W2 DJAKOVO CRLNet.108 http://elco.hr9A3XK>APMI06,E79VTR-11*,WIDE2-1,qAR,9A5CAN-11:!4522.10N/01814.60EIiGate&W2 DJAKOVO CRLNet.108 http://elco.hr
2020-07-13 07:51:069A3XK>APMI06,TCPIP*,qAC,APRSFI-I1:T#145,058,040,010,16407,083,00000000
2020-07-13 07:50:339A3XK>BEACON,9A1BTU-1*,WIDE1,qAR,9A5CAN-11:Power 9W Gain 3dB Height 240m Ant omni
2020-07-13 07:46:069A3XK>APMI06,TCPIP*,qAC,APRSFI-I1:T#144,070,040,018,16414,083,00000000
2020-07-13 07:41:069A3XK>APMI06,TCPIP*,qAC,APRSFI-I1:T#142,059,040,012,16407,083,00000000
2020-07-13 07:40:319A3XK>BEACON,TCPIP*,qAC,APRSFI-I1:Power 9W Gain 3dB Height 240m Ant omni
2020-07-13 07:40:169A3XK>APMI06,TCPIP*,qAC,APRSFI-I1:>http://crlnet.it - WX3IN1 Plus 2.0 - v1.13 - 26.3C - 12.1V
2020-07-13 07:40:11!4522.10N/01814.60EIiGate&W2 DJAKOVO CRLNet.108 http://elco.hr9A3XK>APMI06,TCPIP*,qAC,APRSFI-I1:!4522.10N/01814.60EIiGate&W2 DJAKOVO CRLNet.108 http://elco.hr
2020-07-13 07:36:069A3XK>APMI06,TCPIP*,qAC,APRSFI-I1:T#141,054,039,006,16396,083,00000000
2020-07-13 07:31:069A3XK>APMI06,TCPIP*,qAC,APRSFI-I1:T#140,054,039,007,16396,083,00000000
2020-07-13 07:30:339A3XK>BEACON,9A1BTU-1*,WIDE1,qAR,9A5CAN-11:Power 9W Gain 3dB Height 240m Ant omni
2020-07-13 07:30:13!4522.10N/01814.60EIiGate&W2 DJAKOVO CRLNet.108 http://elco.hr9A3XK>APMI06,9A1BTU-1*,qAR,9A5CAN-11:!4522.10N/01814.60EIiGate&W2 DJAKOVO CRLNet.108 http://elco.hr
2020-07-13 07:26:069A3XK>APMI06,TCPIP*,qAC,APRSFI-I1:T#139,052,039,012,16401,083,00000000
2020-07-13 07:21:069A3XK>APMI06,TCPIP*,qAC,APRSFI-I1:T#138,059,039,010,16400,083,00000000
2020-07-13 07:20:349A3XK>BEACON,9A1BTU-1*,WIDE1,qAR,9A5CAN-11:Power 9W Gain 3dB Height 240m Ant omni
2020-07-13 07:16:069A3XK>APMI06,TCPIP*,qAC,APRSFI-I1:T#137,069,039,009,16394,083,00000000
2020-07-13 07:14:079A3XK>APMI06,E79VTR-11,WIDE1*,qAR,9A5CAN-11:T#136,074,041,008,16399,083,00000000
2020-07-13 07:11:069A3XK>APMI06,TCPIP*,qAC,APRSFI-I1:T#135,073,040,011,16398,083,00000000
2020-07-13 07:10:319A3XK>BEACON,TCPIP*,qAC,APRSFI-I1:Power 9W Gain 3dB Height 240m Ant omni
2020-07-13 07:10:249A3XK>BEACON,9A1BTU-1*,WIDE1,qAR,9A5CAN-11:CRLNet.108 - SysOp 9a3XK & 9a7kxp-Internet via DJWIRELES http://djw.hr/
2020-07-13 07:10:169A3XK>APMI06,TCPIP*,qAC,APRSFI-I1:>http://crlnet.it - WX3IN1 Plus 2.0 - v1.13 - 26.7C - 12.1V
2020-07-13 07:10:11!4522.10N/01814.60EIiGate&W2 DJAKOVO CRLNet.108 http://elco.hr9A3XK>APMI06,TCPIP*,qAC,APRSFI-I1:!4522.10N/01814.60EIiGate&W2 DJAKOVO CRLNet.108 http://elco.hr
2020-07-13 07:06:069A3XK>APMI06,TCPIP*,qAC,APRSFI-I1:T#134,061,038,014,16404,083,00000000
2020-07-13 07:05:13!4522.10N/01814.60EIiGate&W2 DJAKOVO CRLNet.108 http://elco.hr9A3XK>APMI06,9A1BTU-1*,qAR,9A5CAN-11:!4522.10N/01814.60EIiGate&W2 DJAKOVO CRLNet.108 http://elco.hr
2020-07-13 07:01:069A3XK>APMI06,TCPIP*,qAC,APRSFI-I1:T#133,060,038,012,16401,083,00000000
2020-07-13 07:00:349A3XK>BEACON,E79VTR-11,WIDE1*,qAR,OE6XG-2:Power 9W Gain 3dB Height 240m Ant omni
2020-07-13 06:56:069A3XK>APMI06,TCPIP*,qAC,APRSFI-I1:T#132,066,038,009,16396,083,00000000
2020-07-13 06:51:069A3XK>APMI06,TCPIP*,qAC,APRSFI-I1:T#131,057,036,009,16393,083,00000000
2020-07-13 06:50:339A3XK>BEACON,9A1BTU-1*,WIDE1,qAR,9A5CAN-11:Power 9W Gain 3dB Height 240m Ant omni
2020-07-13 06:46:069A3XK>APMI06,TCPIP*,qAC,APRSFI-I1:T#130,062,037,011,16403,083,00000000
2020-07-13 06:45:089A3XK>APMI06,E79VTR-11,WIDE1*,qAR,9A5CAN-11:T#129,058,038,011,16405,083,00000000
2020-07-13 06:41:069A3XK>APMI06,TCPIP*,qAC,APRSFI-I1:T#128,049,037,006,16397,083,00000000
2020-07-13 06:40:319A3XK>BEACON,TCPIP*,qAC,APRSFI-I1:Power 9W Gain 3dB Height 240m Ant omni
2020-07-13 06:40:169A3XK>APMI06,TCPIP*,qAC,APRSFI-I1:>http://crlnet.it - WX3IN1 Plus 2.0 - v1.13 - 27.2C - 12.1V
2020-07-13 06:40:11!4522.10N/01814.60EIiGate&W2 DJAKOVO CRLNet.108 http://elco.hr9A3XK>APMI06,TCPIP*,qAC,APRSFI-I1:!4522.10N/01814.60EIiGate&W2 DJAKOVO CRLNet.108 http://elco.hr
2020-07-13 06:36:069A3XK>APMI06,TCPIP*,qAC,APRSFI-I1:T#127,058,039,009,16402,083,00000000
2020-07-13 06:31:069A3XK>APMI06,TCPIP*,qAC,APRSFI-I1:T#126,056,040,013,16404,083,00000000
2020-07-13 06:30:339A3XK>BEACON,9A1BTU-1*,WIDE1,qAR,9A5CAN-11:Power 9W Gain 3dB Height 240m Ant omni
2020-07-13 06:26:069A3XK>APMI06,TCPIP*,qAC,APRSFI-I1:T#125,053,040,014,16401,083,00000000
2020-07-13 06:21:069A3XK>APMI06,TCPIP*,qAC,APRSFI-I1:T#124,059,039,004,16385,083,00000000
2020-07-13 06:20:349A3XK>BEACON,E79VTR-11,WIDE1*,qAR,9A5CAN-11:Power 9W Gain 3dB Height 240m Ant omni
2020-07-13 06:16:089A3XK>APMI06,E79VTR-11,WIDE1*,qAR,OE6XG-2:T#122,052,038,003,16390,083,00000000
2020-07-13 06:16:069A3XK>APMI06,TCPIP*,qAC,APRSFI-I1:T#123,052,038,003,16390,083,00000000
2020-07-13 06:15:14!4522.10N/01814.60EIiGate&W2 DJAKOVO CRLNet.108 http://elco.hr9A3XK>APMI06,9A1BTU-1*,qAR,9A5CAN-11:!4522.10N/01814.60EIiGate&W2 DJAKOVO CRLNet.108 http://elco.hr
2020-07-13 06:11:069A3XK>APMI06,TCPIP*,qAC,APRSFI-I1:T#121,062,040,009,16397,083,00000000
2020-07-13 06:10:319A3XK>BEACON,TCPIP*,qAC,APRSFI-I1:Power 9W Gain 3dB Height 240m Ant omni
2020-07-13 06:10:249A3XK>BEACON,YU0XFG-1,WIDE1*,qAR,YO2KCB-1:CRLNet.108 - SysOp 9a3XK & 9a7kxp-Internet via DJWIRELES http://djw.hr/
2020-07-13 06:10:169A3XK>APMI06,TCPIP*,qAC,APRSFI-I1:>http://crlnet.it - WX3IN1 Plus 2.0 - v1.13 - 27.4C - 11.9V
2020-07-13 06:10:11!4522.10N/01814.60EIiGate&W2 DJAKOVO CRLNet.108 http://elco.hr9A3XK>APMI06,TCPIP*,qAC,APRSFI-I1:!4522.10N/01814.60EIiGate&W2 DJAKOVO CRLNet.108 http://elco.hr
2020-07-13 06:06:069A3XK>APMI06,TCPIP*,qAC,APRSFI-I1:T#120,056,040,009,16407,083,00000000
2020-07-13 06:01:069A3XK>APMI06,TCPIP*,qAC,APRSFI-I1:T#119,046,040,005,16402,083,00000000
2020-07-13 06:00:349A3XK>BEACON,YU0XFG-1,WIDE1*,qAR,YO2KCB-1:Power 9W Gain 3dB Height 240m Ant omni
2020-07-13 05:56:069A3XK>APMI06,TCPIP*,qAC,APRSFI-I1:T#118,063,040,009,16409,083,00000000
2020-07-13 05:51:069A3XK>APMI06,TCPIP*,qAC,APRSFI-I1:T#117,065,039,012,16411,083,00000000
2020-07-13 05:50:339A3XK>BEACON,E79VTR-11,WIDE1*,qAR,9A5CAN-11:Power 9W Gain 3dB Height 240m Ant omni
2020-07-13 05:50:13!4522.10N/01814.60EIiGate&W2 DJAKOVO CRLNet.108 http://elco.hr9A3XK>APMI06,9A1BTU-1*,qAR,9A5CAN-11:!4522.10N/01814.60EIiGate&W2 DJAKOVO CRLNet.108 http://elco.hr
2020-07-13 05:47:089A3XK>APMI06,9A1BTU-1*,WIDE1,qAR,9A5CAN-11:T#116,078,039,015,16418,083,00000000
2020-07-13 05:46:069A3XK>APMI06,TCPIP*,qAC,APRSFI-I1:T#115,074,039,015,16415,083,00000000
2020-07-13 05:41:069A3XK>APMI06,TCPIP*,qAC,APRSFI-I1:T#114,069,037,013,16411,083,00000000
2020-07-13 05:41:019A3XK>APMI06,YU0XFG-1,WIDE1*,qAR,YO2KCB-1::9A3XK :EQNS.0,1,0,0,10,0,0,1,0,0,0.001,0,0,1,0
2020-07-13 05:41:019A3XK>APMI06,YU0XFG-1,WIDE1*,qAR,YO2KCB-1::9A3XK :BITS.11111111,DJAKOVO 5' Stats.
2020-07-13 05:41:009A3XK>APMI06,YU0XFG-1,WIDE1*,qAR,YO2KCB-1::9A3XK :UNIT.Pkt,Pkt,Pkt,Pcnt,Pcnt,On,On,On,On,Hi,Hi,Hi,Hi
2020-07-13 05:40:599A3XK>APMI06,E79VTR-11,WIDE1*,qAR,9A5CAN-11::9A3XK :PARM.Rx10m,Rx1h,Dg10m,DgR,Eff,O1,O2,O3,O4,I1,I2,I3,I4
2020-07-13 05:40:319A3XK>BEACON,TCPIP*,qAC,APRSFI-I1:Power 9W Gain 3dB Height 240m Ant omni
2020-07-13 05:40:259A3XK>BEACON,YU0XFG-1,WIDE1*,qAR,YO2KCB-1:CRLNet.108 - SysOp 9a3XK & 9a7kxp-Internet via DJWIRELES http://djw.hr/
2020-07-13 05:40:169A3XK>APMI06,TCPIP*,qAC,APRSFI-I1:>http://crlnet.it - WX3IN1 Plus 2.0 - v1.13 - 27.5C - 12.1V
2020-07-13 05:40:11!4522.10N/01814.60EIiGate&W2 DJAKOVO CRLNet.108 http://elco.hr9A3XK>APMI06,TCPIP*,qAC,APRSFI-I1:!4522.10N/01814.60EIiGate&W2 DJAKOVO CRLNet.108 http://elco.hr
2020-07-13 05:36:069A3XK>APMI06,TCPIP*,qAC,APRSFI-I1:T#113,056,036,005,16412,083,00000000
2020-07-13 05:31:069A3XK>APMI06,TCPIP*,qAC,APRSFI-I1:T#112,047,036,006,16413,083,00000000
2020-07-13 05:30:339A3XK>BEACON,E79VTR-11,WIDE1*,qAR,OE6XG-2:Power 9W Gain 3dB Height 240m Ant omni
2020-07-13 05:26:069A3XK>APMI06,TCPIP*,qAC,APRSFI-I1:T#111,049,035,011,16425,083,00000000
2020-07-13 05:25:13!4522.10N/01814.60EIiGate&W2 DJAKOVO CRLNet.108 http://elco.hr9A3XK>APMI06,E79VTR-11*,WIDE2-1,qAR,9A5CAN-11:!4522.10N/01814.60EIiGate&W2 DJAKOVO CRLNet.108 http://elco.hr
2020-07-13 05:21:069A3XK>APMI06,TCPIP*,qAC,APRSFI-I1:T#110,064,036,009,16419,083,00000000
2020-07-13 05:18:089A3XK>APMI06,E79VTR-11,WIDE1*,qAR,9A5CAN-11:T#109,065,037,008,16416,083,00000000
2020-07-13 05:16:069A3XK>APMI06,TCPIP*,qAC,APRSFI-I1:T#108,067,036,008,16416,083,00000000
2020-07-13 05:11:069A3XK>APMI06,TCPIP*,qAC,APRSFI-I1:T#107,059,035,011,16420,083,00000000
2020-07-13 05:10:319A3XK>BEACON,TCPIP*,qAC,APRSFI-I1:Power 9W Gain 3dB Height 240m Ant omni
2020-07-13 05:10:239A3XK>BEACON,E79VTR-11,WIDE1*,qAR,9A5CAN-11:CRLNet.108 - SysOp 9a3XK & 9a7kxp-Internet via DJWIRELES http://djw.hr/
2020-07-13 05:10:169A3XK>APMI06,TCPIP*,qAC,APRSFI-I1:>http://crlnet.it - WX3IN1 Plus 2.0 - v1.13 - 27.5C - 12.1V
2020-07-13 05:10:11!4522.10N/01814.60EIiGate&W2 DJAKOVO CRLNet.108 http://elco.hr9A3XK>APMI06,TCPIP*,qAC,APRSFI-I1:!4522.10N/01814.60EIiGate&W2 DJAKOVO CRLNet.108 http://elco.hr
2020-07-13 05:06:069A3XK>APMI06,TCPIP*,qAC,APRSFI-I1:T#106,048,034,008,16428,083,00000000
2020-07-13 05:01:069A3XK>APMI06,TCPIP*,qAC,APRSFI-I1:T#105,042,034,005,16420,083,00000000
2020-07-13 05:00:339A3XK>BEACON,E79VTR-11,WIDE1*,qAR,OE6XG-2:Power 9W Gain 3dB Height 240m Ant omni
2020-07-13 05:00:13!4522.10N/01814.60EIiGate&W2 DJAKOVO CRLNet.108 http://elco.hr9A3XK>APMI06,9A1BTU-1*,qAR,9A5CAN-11:!4522.10N/01814.60EIiGate&W2 DJAKOVO CRLNet.108 http://elco.hr
2020-07-13 04:56:069A3XK>APMI06,TCPIP*,qAC,APRSFI-I1:T#104,058,036,009,16425,083,00000000
2020-07-13 04:55:569A3XK>APMI06,TCPIP*,qAC,APRSFI-I1::9A3XK :PARM.Rx10m,Rx1h,Dg10m,DgR,Eff,O1,O2,O3,O4,I1,I2,I3,I4
2020-07-13 04:55:569A3XK>APMI06,TCPIP*,qAC,APRSFI-I1::9A3XK :BITS.11111111,DJAKOVO 5' Stats.
2020-07-13 04:55:569A3XK>APMI06,TCPIP*,qAC,APRSFI-I1::9A3XK :EQNS.0,1,0,0,10,0,0,1,0,0,0.001,0,0,1,0
2020-07-13 04:55:569A3XK>APMI06,TCPIP*,qAC,APRSFI-I1::9A3XK :UNIT.Pkt,Pkt,Pkt,Pcnt,Pcnt,On,On,On,On,Hi,Hi,Hi,Hi
2020-07-13 04:55:219A3XK>BEACON,TCPIP*,qAC,APRSFI-I1:CRLNet.108 - SysOp 9a3XK & 9a7kxp-Internet via DJWIRELES http://djw.hr/
2020-07-13 04:51:069A3XK>APMI06,TCPIP*,qAC,APRSFI-I1:T#103,057,036,008,16428,083,00000000
2020-07-13 04:50:339A3XK>BEACON,E79VTR-11,WIDE1*,qAR,9A5CAN-11:Power 9W Gain 3dB Height 240m Ant omni
2020-07-13 04:49:099A3XK>APMI06,YU0XFG-1,WIDE1*,qAR,YO2KCB-1:T#102,056,036,006,16432,083,00000000
2020-07-13 04:46:069A3XK>APMI06,TCPIP*,qAC,APRSFI-I1:T#101,044,035,006,16427,083,00000000
2020-07-13 04:41:069A3XK>APMI06,TCPIP*,qAC,APRSFI-I1:T#100,048,036,006,16428,083,00000000
2020-07-13 04:40:319A3XK>BEACON,TCPIP*,qAC,APRSFI-I1:Power 9W Gain 3dB Height 240m Ant omni
2020-07-13 04:40:249A3XK>BEACON,YU0XFG-1,WIDE1*,qAR,YO2KCB-1:CRLNet.108 - SysOp 9a3XK & 9a7kxp-Internet via DJWIRELES http://djw.hr/
2020-07-13 04:40:169A3XK>APMI06,TCPIP*,qAC,APRSFI-I1:>http://crlnet.it - WX3IN1 Plus 2.0 - v1.13 - 27.6C - 12.1V
2020-07-13 04:40:11!4522.10N/01814.60EIiGate&W2 DJAKOVO CRLNet.108 http://elco.hr9A3XK>APMI06,TCPIP*,qAC,APRSFI-I1:!4522.10N/01814.60EIiGate&W2 DJAKOVO CRLNet.108 http://elco.hr
2020-07-13 04:36:069A3XK>APMI06,TCPIP*,qAC,APRSFI-I1:T#099,042,036,005,16435,083,00000000
2020-07-13 04:35:13!4522.10N/01814.60EIiGate&W2 DJAKOVO CRLNet.108 http://elco.hr9A3XK>APMI06,9A1BTU-1*,qAR,9A5CAN-11:!4522.10N/01814.60EIiGate&W2 DJAKOVO CRLNet.108 http://elco.hr
2020-07-13 04:31:069A3XK>APMI06,TCPIP*,qAC,APRSFI-I1:T#098,063,036,013,16435,083,00000000
2020-07-13 04:30:339A3XK>BEACON,9A1BTU-1*,WIDE1,qAR,9A5CAN-11:Power 9W Gain 3dB Height 240m Ant omni
2020-07-13 04:26:069A3XK>APMI06,TCPIP*,qAC,APRSFI-I1:T#097,070,036,013,16438,083,00000000
2020-07-13 04:21:069A3XK>APMI06,TCPIP*,qAC,APRSFI-I1:T#096,055,034,005,16428,083,00000000
2020-07-13 04:20:349A3XK>BEACON,YU0XFG-1,WIDE1*,qAR,YO2KCB-1:Power 9W Gain 3dB Height 240m Ant omni
2020-07-13 04:20:089A3XK>APMI06,E79VTR-11,WIDE1*,qAR,9A5CAN-11:T#095,052,034,005,16424,083,00000000
2020-07-13 04:16:069A3XK>APMI06,TCPIP*,qAC,APRSFI-I1:T#094,047,034,004,16432,083,00000000
2020-07-13 04:11:069A3XK>APMI06,TCPIP*,qAC,APRSFI-I1:T#093,052,035,007,16435,083,00000000
2020-07-13 04:10:319A3XK>BEACON,TCPIP*,qAC,APRSFI-I1:Power 9W Gain 3dB Height 240m Ant omni
2020-07-13 04:10:249A3XK>BEACON,9A1BTU-1*,WIDE1,qAR,9A5CAN-11:CRLNet.108 - SysOp 9a3XK & 9a7kxp-Internet via DJWIRELES http://djw.hr/
2020-07-13 04:10:169A3XK>APMI06,TCPIP*,qAC,APRSFI-I1:>http://crlnet.it - WX3IN1 Plus 2.0 - v1.13 - 27.8C - 12.1V
2020-07-13 04:10:11!4522.10N/01814.60EIiGate&W2 DJAKOVO CRLNet.108 http://elco.hr9A3XK>APMI06,TCPIP*,qAC,APRSFI-I1:!4522.10N/01814.60EIiGate&W2 DJAKOVO CRLNet.108 http://elco.hr
2020-07-13 04:06:069A3XK>APMI06,TCPIP*,qAC,APRSFI-I1:T#092,060,035,015,16446,083,00000000
2020-07-13 04:01:069A3XK>APMI06,TCPIP*,qAC,APRSFI-I1:T#091,057,036,010,16441,083,00000000
2020-07-13 04:00:339A3XK>BEACON,E79VTR-11,WIDE1*,qAR,9A5CAN-11:Power 9W Gain 3dB Height 240m Ant omni
2020-07-13 03:56:069A3XK>APMI06,TCPIP*,qAC,APRSFI-I1:T#090,056,035,005,16429,083,00000000
2020-07-13 03:51:089A3XK>APMI06,E79VTR-11,WIDE1*,qAR,9A5CAN-11:T#088,064,035,009,16437,083,00000000
2020-07-13 03:51:069A3XK>APMI06,TCPIP*,qAC,APRSFI-I1:T#089,064,035,009,16437,083,00000000
2020-07-13 03:50:339A3XK>BEACON,E79VTR-11,WIDE1*,qAR,OE6XG-2:Power 9W Gain 3dB Height 240m Ant omni
2020-07-13 03:46:069A3XK>APMI06,TCPIP*,qAC,APRSFI-I1:T#087,050,034,012,16441,083,00000000
2020-07-13 03:45:13!4522.10N/01814.60EIiGate&W2 DJAKOVO CRLNet.108 http://elco.hr9A3XK>APMI06,9A1BTU-1*,qAR,9A5CAN-11:!4522.10N/01814.60EIiGate&W2 DJAKOVO CRLNet.108 http://elco.hr
2020-07-13 03:41:069A3XK>APMI06,TCPIP*,qAC,APRSFI-I1:T#086,043,036,013,16438,083,00000000
2020-07-13 03:40:319A3XK>BEACON,TCPIP*,qAC,APRSFI-I1:Power 9W Gain 3dB Height 240m Ant omni
2020-07-13 03:40:249A3XK>BEACON,YU0XFG-1,WIDE1*,qAR,YO2KCB-1:CRLNet.108 - SysOp 9a3XK & 9a7kxp-Internet via DJWIRELES http://djw.hr/
2020-07-13 03:40:169A3XK>APMI06,TCPIP*,qAC,APRSFI-I1:>http://crlnet.it - WX3IN1 Plus 2.0 - v1.13 - 27.9C - 12.1V
2020-07-13 03:40:11!4522.10N/01814.60EIiGate&W2 DJAKOVO CRLNet.108 http://elco.hr9A3XK>APMI06,TCPIP*,qAC,APRSFI-I1:!4522.10N/01814.60EIiGate&W2 DJAKOVO CRLNet.108 http://elco.hr
2020-07-13 03:36:069A3XK>APMI06,TCPIP*,qAC,APRSFI-I1:T#085,045,036,008,16434,083,00000000
2020-07-13 03:31:069A3XK>APMI06,TCPIP*,qAC,APRSFI-I1:T#084,043,036,005,16423,083,00000000
2020-07-13 03:30:339A3XK>BEACON,9A1BTU-1*,WIDE1,qAR,9A5CAN-11:Power 9W Gain 3dB Height 240m Ant omni
2020-07-13 03:26:069A3XK>APMI06,TCPIP*,qAC,APRSFI-I1:T#083,059,038,010,16430,083,00000000
2020-07-13 03:22:089A3XK>APMI06,9A1BTU-1*,WIDE1,qAR,9A5CAN-11:T#082,063,038,009,16434,083,00000000
2020-07-13 03:21:069A3XK>APMI06,TCPIP*,qAC,APRSFI-I1:T#081,057,038,007,16433,083,00000000
2020-07-13 03:20:339A3XK>BEACON,E79VTR-11,WIDE1*,qAR,OE6XG-2:Power 9W Gain 3dB Height 240m Ant omni
2020-07-13 03:20:13!4522.10N/01814.60EIiGate&W2 DJAKOVO CRLNet.108 http://elco.hr9A3XK>APMI06,9A1BTU-1*,qAR,9A5CAN-11:!4522.10N/01814.60EIiGate&W2 DJAKOVO CRLNet.108 http://elco.hr
2020-07-13 03:16:069A3XK>APMI06,TCPIP*,qAC,APRSFI-I1:T#080,054,038,008,16431,083,00000000
2020-07-13 03:11:069A3XK>APMI06,TCPIP*,qAC,APRSFI-I1:T#079,058,039,012,16437,083,00000000
2020-07-13 03:10:319A3XK>BEACON,TCPIP*,qAC,APRSFI-I1:Power 9W Gain 3dB Height 240m Ant omni
2020-07-13 03:10:259A3XK>BEACON,E79VTR-11,WIDE1*,qAR,OE6XG-2:CRLNet.108 - SysOp 9a3XK & 9a7kxp-Internet via DJWIRELES http://djw.hr/
2020-07-13 03:10:169A3XK>APMI06,TCPIP*,qAC,APRSFI-I1:>http://crlnet.it - WX3IN1 Plus 2.0 - v1.13 - 28.6C - 12.1V
2020-07-13 03:10:11!4522.10N/01814.60EIiGate&W2 DJAKOVO CRLNet.108 http://elco.hr9A3XK>APMI06,TCPIP*,qAC,APRSFI-I1:!4522.10N/01814.60EIiGate&W2 DJAKOVO CRLNet.108 http://elco.hr
2020-07-13 03:06:069A3XK>APMI06,TCPIP*,qAC,APRSFI-I1:T#078,049,039,008,16435,083,00000000
2020-07-13 03:01:069A3XK>APMI06,TCPIP*,qAC,APRSFI-I1:T#077,053,040,009,16432,083,00000000
2020-07-13 03:00:349A3XK>BEACON,9A1BTU-1*,WIDE1,qAR,9A5CAN-11:Power 9W Gain 3dB Height 240m Ant omni
2020-07-13 02:56:069A3XK>APMI06,TCPIP*,qAC,APRSFI-I1:T#076,054,040,009,16432,083,00000000
2020-07-13 02:55:13!4522.10N/01814.60EIiGate&W2 DJAKOVO CRLNet.108 http://elco.hr9A3XK>APMI06,9A1BTU-1*,qAR,9A5CAN-11:!4522.10N/01814.60EIiGate&W2 DJAKOVO CRLNet.108 http://elco.hr
2020-07-13 02:53:089A3XK>APMI06,9A1BTU-1*,WIDE1,qAR,9A5CAN-11:T#075,073,042,017,16434,083,00000000
2020-07-13 02:51:069A3XK>APMI06,TCPIP*,qAC,APRSFI-I1:T#074,070,042,016,16434,083,00000000
2020-07-13 02:50:349A3XK>BEACON,9A1BTU-1*,WIDE1,qAR,9A5CAN-11:Power 9W Gain 3dB Height 240m Ant omni
2020-07-13 02:46:069A3XK>APMI06,TCPIP*,qAC,APRSFI-I1:T#073,057,042,016,16432,083,00000000
2020-07-13 02:41:069A3XK>APMI06,TCPIP*,qAC,APRSFI-I1:T#072,050,043,011,16422,083,00000000
2020-07-13 02:40:319A3XK>BEACON,TCPIP*,qAC,APRSFI-I1:Power 9W Gain 3dB Height 240m Ant omni
2020-07-13 02:40:249A3XK>BEACON,E79VTR-11,WIDE1*,qAR,9A5CAN-11:CRLNet.108 - SysOp 9a3XK & 9a7kxp-Internet via DJWIRELES http://djw.hr/
2020-07-13 02:40:169A3XK>APMI06,TCPIP*,qAC,APRSFI-I1:>http://crlnet.it - WX3IN1 Plus 2.0 - v1.13 - 29.1C - 12.1V
2020-07-13 02:40:11!4522.10N/01814.60EIiGate&W2 DJAKOVO CRLNet.108 http://elco.hr9A3XK>APMI06,TCPIP*,qAC,APRSFI-I1:!4522.10N/01814.60EIiGate&W2 DJAKOVO CRLNet.108 http://elco.hr
2020-07-13 02:36:069A3XK>APMI06,TCPIP*,qAC,APRSFI-I1:T#071,060,044,010,16416,083,00000000
2020-07-13 02:31:069A3XK>APMI06,TCPIP*,qAC,APRSFI-I1:T#070,058,044,006,16416,083,00000000
2020-07-13 02:30:349A3XK>BEACON,9A1BTU-1*,WIDE1,qAR,9A5CAN-11:Power 9W Gain 3dB Height 240m Ant omni
2020-07-13 02:30:14!4522.10N/01814.60EIiGate&W2 DJAKOVO CRLNet.108 http://elco.hr9A3XK>APMI06,9A1BTU-1*,qAR,9A5CAN-11:!4522.10N/01814.60EIiGate&W2 DJAKOVO CRLNet.108 http://elco.hr
2020-07-13 02:26:069A3XK>APMI06,TCPIP*,qAC,APRSFI-I1:T#069,072,046,010,16413,083,00000000
2020-07-13 02:24:089A3XK>APMI06,E79VTR-11,WIDE1*,qAR,9A5CAN-11:T#068,071,045,010,16418,083,00000000
2020-07-13 02:21:069A3XK>APMI06,TCPIP*,qAC,APRSFI-I1:T#067,070,046,010,16424,083,00000000
2020-07-13 02:20:339A3XK>BEACON,E79VTR-11,WIDE1*,qAR,9A5CAN-11:Power 9W Gain 3dB Height 240m Ant omni
2020-07-13 02:16:069A3XK>APMI06,TCPIP*,qAC,APRSFI-I1:T#066,063,045,005,16420,083,00000000
2020-07-13 02:11:069A3XK>APMI06,TCPIP*,qAC,APRSFI-I1:T#065,056,045,010,16431,083,00000000
2020-07-13 02:10:319A3XK>BEACON,TCPIP*,qAC,APRSFI-I1:Power 9W Gain 3dB Height 240m Ant omni
2020-07-13 02:10:249A3XK>BEACON,YU0XFG-1,WIDE1*,qAR,YO2KCB-1:CRLNet.108 - SysOp 9a3XK & 9a7kxp-Internet via DJWIRELES http://djw.hr/
2020-07-13 02:10:169A3XK>APMI06,TCPIP*,qAC,APRSFI-I1:>http://crlnet.it - WX3IN1 Plus 2.0 - v1.13 - 29.8C - 12.1V
2020-07-13 02:10:11!4522.10N/01814.60EIiGate&W2 DJAKOVO CRLNet.108 http://elco.hr9A3XK>APMI06,TCPIP*,qAC,APRSFI-I1:!4522.10N/01814.60EIiGate&W2 DJAKOVO CRLNet.108 http://elco.hr
2020-07-13 02:06:069A3XK>APMI06,TCPIP*,qAC,APRSFI-I1:T#064,060,045,011,16440,083,00000000
2020-07-13 02:05:14!4522.10N/01814.60EIiGate&W2 DJAKOVO CRLNet.108 http://elco.hr9A3XK>APMI06,YU0XFG-1*,qAR,YO2KCB-1:!4522.10N/01814.60EIiGate&W2 DJAKOVO CRLNet.108 http://elco.hr
2020-07-13 02:01:069A3XK>APMI06,TCPIP*,qAC,APRSFI-I1:T#063,067,046,013,16433,083,00000000
2020-07-13 02:00:349A3XK>BEACON,9A1BTU-1*,WIDE1,qAR,9A5CAN-11:Power 9W Gain 3dB Height 240m Ant omni
2020-07-13 01:56:069A3XK>APMI06,TCPIP*,qAC,APRSFI-I1:T#062,075,045,014,16429,083,00000000
2020-07-13 01:55:089A3XK>APMI06,E79VTR-11,WIDE1*,qAR,OE6XG-2:T#061,083,045,016,16433,083,00000000
2020-07-13 01:51:069A3XK>APMI06,TCPIP*,qAC,APRSFI-I1:T#060,075,043,016,16431,083,00000000
2020-07-13 01:50:349A3XK>BEACON,9A1BTU-1*,WIDE1,qAR,9A5CAN-11:Power 9W Gain 3dB Height 240m Ant omni
2020-07-13 01:46:069A3XK>APMI06,TCPIP*,qAC,APRSFI-I1:T#059,073,045,016,16425,083,00000000
2020-07-13 01:41:069A3XK>APMI06,TCPIP*,qAC,APRSFI-I1:T#058,070,043,016,16424,083,00000000
2020-07-13 01:40:319A3XK>BEACON,TCPIP*,qAC,APRSFI-I1:Power 9W Gain 3dB Height 240m Ant omni
2020-07-13 01:40:169A3XK>APMI06,TCPIP*,qAC,APRSFI-I1:>http://crlnet.it - WX3IN1 Plus 2.0 - v1.13 - 30.4C - 12.1V
2020-07-13 01:40:11!4522.10N/01814.60EIiGate&W2 DJAKOVO CRLNet.108 http://elco.hr9A3XK>APMI06,TCPIP*,qAC,APRSFI-I1:!4522.10N/01814.60EIiGate&W2 DJAKOVO CRLNet.108 http://elco.hr
2020-07-13 01:36:069A3XK>APMI06,TCPIP*,qAC,APRSFI-I1:T#057,067,044,012,16416,083,00000000
2020-07-13 01:31:069A3XK>APMI06,TCPIP*,qAC,APRSFI-I1:T#056,072,045,014,16412,083,00000000
2020-07-13 01:30:349A3XK>BEACON,9A1BTU-1*,WIDE1,qAR,9A5CAN-11:Power 9W Gain 3dB Height 240m Ant omni
2020-07-13 01:26:089A3XK>APMI06,E79VTR-11,WIDE1*,qAR,OE6XG-2:T#054,072,044,017,16414,083,00000000
2020-07-13 01:26:069A3XK>APMI06,TCPIP*,qAC,APRSFI-I1:T#055,072,044,017,16414,083,00000000
2020-07-13 01:21:069A3XK>APMI06,TCPIP*,qAC,APRSFI-I1:T#053,063,043,013,16409,083,00000000
2020-07-13 01:20:349A3XK>BEACON,9A1BTU-1*,WIDE1,qAR,9A5CAN-11:Power 9W Gain 3dB Height 240m Ant omni
2020-07-13 01:16:069A3XK>APMI06,TCPIP*,qAC,APRSFI-I1:T#052,063,041,010,16398,083,00000000
2020-07-13 01:15:14!4522.10N/01814.60EIiGate&W2 DJAKOVO CRLNet.108 http://elco.hr9A3XK>APMI06,9A1BTU-1*,qAR,9A5CAN-11:!4522.10N/01814.60EIiGate&W2 DJAKOVO CRLNet.108 http://elco.hr
2020-07-13 01:11:069A3XK>APMI06,TCPIP*,qAC,APRSFI-I1:T#051,070,042,015,16400,083,00000000
2020-07-13 01:10:319A3XK>BEACON,TCPIP*,qAC,APRSFI-I1:Power 9W Gain 3dB Height 240m Ant omni
2020-07-13 01:10:259A3XK>BEACON,YU0XFG-1,WIDE1*,qAR,YO2KCB-1:CRLNet.108 - SysOp 9a3XK & 9a7kxp-Internet via DJWIRELES http://djw.hr/
2020-07-13 01:10:169A3XK>APMI06,TCPIP*,qAC,APRSFI-I1:>http://crlnet.it - WX3IN1 Plus 2.0 - v1.13 - 30.8C - 12.1V
2020-07-13 01:10:11!4522.10N/01814.60EIiGate&W2 DJAKOVO CRLNet.108 http://elco.hr9A3XK>APMI06,TCPIP*,qAC,APRSFI-I1:!4522.10N/01814.60EIiGate&W2 DJAKOVO CRLNet.108 http://elco.hr
2020-07-13 01:06:069A3XK>APMI06,TCPIP*,qAC,APRSFI-I1:T#050,059,041,013,16403,083,00000000
2020-07-13 01:01:069A3XK>APMI06,TCPIP*,qAC,APRSFI-I1:T#049,045,040,009,16393,083,00000000
2020-07-13 01:00:359A3XK>BEACON,9A1BTU-1*,WIDE1,qAR,9A5CAN-11:Power 9W Gain 3dB Height 240m Ant omni
2020-07-13 00:57:089A3XK>APMI06,E79VTR-11,WIDE1*,qAR,OE6XG-2:T#048,074,040,013,16392,083,00000000
2020-07-13 00:56:069A3XK>APMI06,TCPIP*,qAC,APRSFI-I1:T#047,075,039,010,16393,083,00000000
2020-07-13 00:51:069A3XK>APMI06,TCPIP*,qAC,APRSFI-I1:T#046,064,038,004,16386,083,00000000
2020-07-13 00:50:349A3XK>BEACON,9A1BTU-1*,WIDE1,qAR,9A5CAN-11:Power 9W Gain 3dB Height 240m Ant omni
2020-07-13 00:50:13!4522.10N/01814.60EIiGate&W2 DJAKOVO CRLNet.108 http://elco.hr9A3XK>APMI06,E79VTR-11*,WIDE2-1,qAR,9A5CAN-11:!4522.10N/01814.60EIiGate&W2 DJAKOVO CRLNet.108 http://elco.hr
2020-07-13 00:46:069A3XK>APMI06,TCPIP*,qAC,APRSFI-I1:T#045,070,038,014,16394,083,00000000
2020-07-13 00:41:069A3XK>APMI06,TCPIP*,qAC,APRSFI-I1:T#044,084,037,028,16405,082,00000000
2020-07-13 00:40:319A3XK>BEACON,TCPIP*,qAC,APRSFI-I1:Power 9W Gain 3dB Height 240m Ant omni
2020-07-13 00:40:249A3XK>BEACON,9A1BTU-1*,WIDE1,qAR,9A5CAN-11:CRLNet.108 - SysOp 9a3XK & 9a7kxp-Internet via DJWIRELES http://djw.hr/
2020-07-13 00:40:169A3XK>APMI06,TCPIP*,qAC,APRSFI-I1:>http://crlnet.it - WX3IN1 Plus 2.0 - v1.13 - 31.3C - 12.1V
2020-07-13 00:40:11!4522.10N/01814.60EIiGate&W2 DJAKOVO CRLNet.108 http://elco.hr9A3XK>APMI06,TCPIP*,qAC,APRSFI-I1:!4522.10N/01814.60EIiGate&W2 DJAKOVO CRLNet.108 http://elco.hr
2020-07-13 00:36:069A3XK>APMI06,TCPIP*,qAC,APRSFI-I1:T#043,063,036,013,16388,082,00000000
2020-07-13 00:31:069A3XK>APMI06,TCPIP*,qAC,APRSFI-I1:T#042,051,035,008,16365,082,00000000
2020-07-13 00:30:349A3XK>BEACON,9A1BTU-1*,WIDE1,qAR,9A5CAN-11:Power 9W Gain 3dB Height 240m Ant omni
2020-07-13 00:28:099A3XK>APMI06,9A1BTU-1*,WIDE1,qAR,9A5CAN-11:T#041,054,036,010,16374,082,00000000
2020-07-13 00:26:069A3XK>APMI06,TCPIP*,qAC,APRSFI-I1:T#040,045,036,008,16372,082,00000000
2020-07-13 00:25:14!4522.10N/01814.60EIiGate&W2 DJAKOVO CRLNet.108 http://elco.hr9A3XK>APMI06,9A1BTU-1*,qAR,9A5CAN-11:!4522.10N/01814.60EIiGate&W2 DJAKOVO CRLNet.108 http://elco.hr
2020-07-13 00:21:069A3XK>APMI06,TCPIP*,qAC,APRSFI-I1:T#039,061,036,014,16370,082,00000000
2020-07-13 00:20:349A3XK>BEACON,E79VTR-11,WIDE1*,qAR,OE6XG-2:Power 9W Gain 3dB Height 240m Ant omni
2020-07-13 00:16:069A3XK>APMI06,TCPIP*,qAC,APRSFI-I1:T#038,059,036,010,16370,082,00000000
2020-07-13 00:11:069A3XK>APMI06,TCPIP*,qAC,APRSFI-I1:T#037,044,035,009,16358,082,00000000
2020-07-13 00:10:319A3XK>BEACON,TCPIP*,qAC,APRSFI-I1:Power 9W Gain 3dB Height 240m Ant omni
2020-07-13 00:10:249A3XK>BEACON,9A1BTU-1*,WIDE1,qAR,9A5CAN-11:CRLNet.108 - SysOp 9a3XK & 9a7kxp-Internet via DJWIRELES http://djw.hr/
2020-07-13 00:10:169A3XK>APMI06,TCPIP*,qAC,APRSFI-I1:>http://crlnet.it - WX3IN1 Plus 2.0 - v1.13 - 31.8C - 11.8V
2020-07-13 00:10:11!4522.10N/01814.60EIiGate&W2 DJAKOVO CRLNet.108 http://elco.hr9A3XK>APMI06,TCPIP*,qAC,APRSFI-I1:!4522.10N/01814.60EIiGate&W2 DJAKOVO CRLNet.108 http://elco.hr
2020-07-13 00:06:069A3XK>APMI06,TCPIP*,qAC,APRSFI-I1:T#036,042,036,011,16368,082,00000000
2020-07-13 00:01:069A3XK>APMI06,TCPIP*,qAC,APRSFI-I1:T#035,046,037,014,16357,082,00000000
2020-07-13 00:00:339A3XK>BEACON,E79VTR-11,WIDE1*,qAR,9A5CAN-11:Power 9W Gain 3dB Height 240m Ant omni
2020-07-13 00:00:14!4522.10N/01814.60EIiGate&W2 DJAKOVO CRLNet.108 http://elco.hr9A3XK>APMI06,9A1BTU-1*,qAR,9A5CAN-11:!4522.10N/01814.60EIiGate&W2 DJAKOVO CRLNet.108 http://elco.hr